Latest Weather Observations for Cummins Airport

IDS60801

Issued at 4:31 am CDT Friday 30 January 2015 (issued every 30 minutes, with the page automatically refreshed every 10 minutes)

About weather observations | Map of weather stations | Latest weather observations for SA | Other Formats
Station Details ID: 018217 Name: CUMMINS AERO Lat: -34.25 Lon: 135.71 Height: 60.11 m
Data from the previous 72 hours. | See also: Recent months at Cummins Airport
Date/Time
CDT
Temp
°C
App
Temp
°C
Dew
Point
Rel
Hum
%
Delta-T
°C
Wind Press
QNH
hPa
Press
MSL
hPa
Rain
since 9 am
mm
Dir
 
Spd
km/h
Gust
km/h
Spd
kts
Gust
kts
30/04:30am 16.7 15.8 13.8 83 1.6 SE 11 20 6 11 1014.6 1014.4 0.0
30/04:00am 16.8 15.6 14.1 84 1.5 SE 13 17 7 9 1014.6 1014.4 0.0
30/03:30am 16.8 14.4 13.7 82 1.8 SE 19 26 10 14 1014.9 1014.7 0.0
30/03:00am 16.5 13.8 13.6 83 1.6 SE 20 28 11 15 1015.0 1014.8 0.0
30/02:30am 16.8 13.3 13.5 81 1.9 SE 24 30 13 16 1015.2 1015.0 0.0
30/02:00am 17.1 12.9 13.4 79 2.1 ESE 28 37 15 20 1015.4 1015.2 0.0
30/01:30am 17.1 12.3 13.0 77 2.3 SE 30 41 16 22 1015.4 1015.2 0.0
30/01:00am 17.6 12.5 13.1 75 2.5 SE 32 43 17 23 1015.4 1015.2 0.0
30/12:30am 17.9 12.7 12.8 72 2.9 SE 32 41 17 22 1015.3 1015.1 0.0
30/12:00am 18.4 14.7 12.6 69 3.2 SE 24 39 13 21 1015.5 1015.3 0.0
 
Date/Time
CDT
Temp
°C
App
Temp
°C
Dew
Point
Rel
Hum
%
Delta-T
°C
Wind Press
QNH
hPa
Press
MSL
hPa
Rain
since 9 am
mm
Dir
 
Spd
km/h
Gust
km/h
Spd
kts
Gust
kts
29/11:30pm 18.7 13.8 12.7 68 3.4 SE 30 41 16 22 1015.6 1015.4 0.0
29/11:00pm 19.1 14.4 12.1 64 3.9 SE 28 35 15 19 1015.7 1015.5 0.0
29/10:30pm 19.4 15.5 10.7 57 4.7 SE 22 32 12 17 1015.8 1015.6 0.0
29/10:00pm 19.6 16.0 10.0 54 5.2 SE 19 24 10 13 1015.7 1015.5 0.0
29/09:30pm 19.6 17.0 9.5 52 5.4 SE 13 17 7 9 1015.7 1015.5 0.0
29/09:00pm 20.5 17.7 8.5 46 6.3 SE 13 20 7 11 1015.5 1015.3 0.0
29/08:30pm 21.9 17.6 7.0 38 7.7 SE 19 24 10 13 1015.3 1015.1 0.0
29/08:00pm 23.0 18.1 6.7 35 8.4 SE 22 30 12 16 1015.2 1015.0 0.0
29/07:30pm 23.9 18.2 6.7 33 8.9 SE 26 33 14 18 1015.1 1014.9 0.0
29/07:00pm 24.5 18.3 6.3 31 9.4 SE 28 35 15 19 1014.8 1014.6 0.0
29/06:30pm 25.7 20.3 7.8 32 9.6 SE 26 35 14 19 1014.7 1014.5 0.0
29/06:00pm 26.3 20.0 7.4 30 10.0 SE 30 39 16 21 1014.6 1014.4 0.0
29/05:30pm 27.0 21.2 8.0 30 10.2 SE 28 37 15 20 1014.8 1014.6 0.0
29/05:00pm 27.6 21.7 7.5 28 10.8 SE 28 35 15 19 1014.9 1014.7 0.0
29/04:30pm 27.9 21.8 8.2 29 10.7 SE 30 39 16 21 1015.0 1014.8 0.0
29/04:00pm 29.0 23.6 6.4 24 12.0 ESE 24 37 13 20 1015.2 1015.0 0.0
29/03:30pm 28.0 22.4 7.3 27 11.1 SE 26 39 14 21 1015.4 1015.2 0.0
29/03:00pm 28.2 23.0 7.4 27 11.2 ESE 24 37 13 20 1015.7 1015.5 0.0
29/02:30pm 27.5 22.2 6.8 27 11.0 ESE 24 33 13 18 1015.9 1015.7 0.0
29/02:00pm 28.3 22.7 7.0 26 11.4 E 26 39 14 21 1016.0 1015.8 0.0
29/01:30pm 28.2 22.4 8.0 28 11.0 ESE 28 43 15 23 1016.1 1015.9 0.0
29/01:00pm 28.6 23.3 9.8 31 10.5 ESE 28 39 15 21 1016.3 1016.1 0.0
29/12:30pm 27.4 22.4 11.0 36 9.3 ESE 28 35 15 19 1016.6 1016.4 0.0
29/12:00pm 26.8 22.3 11.3 38 8.8 ESE 26 37 14 20 1016.7 1016.5 0.0
29/11:30am 26.3 21.5 11.6 40 8.4 ESE 28 39 15 21 1017.0 1016.8 0.0
29/11:00am 25.3 20.2 11.8 43 7.7 ESE 30 37 16 20 1017.0 1016.8 0.0
29/10:30am 24.5 19.5 12.1 46 7.1 ESE 30 41 16 22 1016.9 1016.7 0.0
29/10:00am 23.8 18.5 12.4 48 6.5 ESE 32 43 17 23 1016.8 1016.6 0.0
29/09:30am 23.1 18.1 13.3 54 5.7 ESE 32 41 17 22 1016.7 1016.5 0.0
29/09:00am 22.0 18.1 14.4 62 4.5 ESE 28 39 15 21 1016.8 1016.6 0.0
29/08:30am 20.4 17.4 14.7 70 3.3 ESE 24 37 13 20 1016.8 1016.6 0.0
29/08:00am 19.0 17.9 15.3 79 2.2 SSE 15 20 8 11 1016.8 1016.6 0.0
29/07:30am 17.6 17.5 15.0 85 1.5 SSE 9 15 5 8 1016.6 1016.4 0.0
29/07:00am 16.7 15.7 14.7 88 1.2 SSE 13 17 7 9 1016.3 1016.1 0.0
29/06:30am 16.2 14.8 14.6 90 0.9 SSE 15 20 8 11 1016.2 1016.0 0.0
29/06:00am 15.9 14.5 14.4 91 0.9 SSE 15 19 8 10 1016.0 1015.8 0.0
29/05:30am 15.5 13.6 14.2 92 0.7 SE 17 20 9 11 1015.9 1015.7 0.0
29/05:00am 14.7 13.2 13.2 91 0.8 SE 13 15 7 8 1016.0 1015.8 0.0
29/04:30am 14.6 12.7 13.1 91 0.8 SE 15 17 8 9 1016.2 1016.0 0.0
29/04:00am 15.1 13.6 13.1 88 1.1 SE 13 15 7 8 1016.3 1016.1 0.0
29/03:30am 15.8 14.1 13.5 86 1.3 SE 15 20 8 11 1016.4 1016.2 0.0
29/03:00am 16.3 13.6 13.6 84 1.5 SE 20 26 11 14 1016.3 1016.1 0.0
29/02:30am 15.9 13.6 13.0 83 1.6 SE 17 24 9 13 1016.5 1016.3 0.0
29/02:00am 15.9 13.2 13.0 83 1.6 SSE 19 22 10 12 1016.9 1016.7 0.0
29/01:30am 15.7 13.7 12.6 82 1.7 SSE 15 20 8 11 1017.1 1016.9 0.0
29/01:00am 16.0 15.0 12.4 79 2.0 ESE 9 13 5 7 1017.5 1017.3 0.0
29/12:30am 16.4 14.2 12.2 76 2.3 SE 15 22 8 12 1017.4 1017.2 0.0
29/12:00am 16.5 13.8 11.6 73 2.7 SE 17 26 9 14 1017.4 1017.2 0.0
 
Date/Time
CDT
Temp
°C
App
Temp
°C
Dew
Point
Rel
Hum
%
Delta-T
°C
Wind Press
QNH
hPa
Press
MSL
hPa
Rain
since 9 am
mm
Dir
 
Spd
km/h
Gust
km/h
Spd
kts
Gust
kts
28/11:30pm 16.4 14.2 12.0 75 2.4 SE 15 20 8 11 1017.4 1017.2 0.0
28/11:00pm 16.8 13.7 11.5 71 2.9 SE 19 28 10 15 1017.4 1017.2 0.0
28/10:30pm 17.1 13.7 11.2 68 3.2 SE 20 32 11 17 1017.3 1017.1 0.0
28/10:00pm 17.2 13.9 10.8 66 3.4 SSE 19 26 10 14 1017.5 1017.3 0.0
28/09:30pm 17.5 14.2 10.9 65 3.6 SE 19 26 10 14 1017.4 1017.2 0.0
28/09:00pm 17.8 12.9 9.9 60 4.2 SE 26 39 14 21 1017.3 1017.1 0.0
28/08:30pm 18.4 13.1 10.0 58 4.5 SE 28 37 15 20 1017.1 1016.9 0.0
28/08:00pm 19.1 13.1 10.1 56 4.8 SE 32 41 17 22 1016.9 1016.7 0.0
28/07:30pm 19.9 14.0 10.6 55 5.0 SE 32 41 17 22 1016.7 1016.5 0.0
28/07:00pm 20.3 14.3 10.1 52 5.5 SE 32 41 17 22 1016.6 1016.4 0.0
28/06:30pm 20.7 13.9 9.3 48 6.1 SE 35 46 19 25 1016.6 1016.4 0.0
28/06:00pm 21.5 15.2 9.7 47 6.4 SE 33 44 18 24 1016.7 1016.5 0.0
28/05:30pm 21.4 14.8 8.7 44 6.7 SE 33 46 18 25 1016.8 1016.6 0.0
28/05:00pm 22.4 15.4 8.5 41 7.4 SE 35 48 19 26 1016.9 1016.7 0.0
28/04:30pm 22.5 15.8 9.6 44 7.0 SE 35 48 19 26 1017.0 1016.8 0.0
28/04:00pm 22.0 15.6 9.2 44 6.9 SE 33 48 18 26 1017.2 1017.0 0.0
28/03:30pm 23.3 16.4 9.0 40 7.7 SE 35 46 19 25 1017.4 1017.2 0.0
28/03:03pm 22.6 16.0 8.7 41 7.4 SE 33 54 18 29 1017.6 1017.4 0.0
28/03:00pm 22.0 15.6 8.5 42 7.1 SE 32 43 17 23 1017.7 1017.5 0.0
28/02:30pm 22.9 16.3 8.6 40 7.6 SE 33 46 18 25 1017.7 1017.5 0.0
28/02:00pm 22.6 15.9 8.3 40 7.6 SE 33 46 18 25 1018.0 1017.8 0.0
28/01:30pm 22.6 16.2 8.7 41 7.4 SE 32 41 17 22 1018.3 1018.1 0.0
28/01:00pm 22.2 16.3 9.0 43 7.1 SE 30 46 16 25 1018.3 1018.1 0.0
28/12:58pm 21.6 16.0 8.8 44 6.8 SE 28 46 15 25 1018.3 1018.1 0.0
28/12:30pm 21.1 14.5 8.4 44 6.7 SE 33 43 18 23 1018.7 1018.5 0.0
28/12:00pm 22.2 15.8 8.7 42 7.2 ESE 32 44 17 24 1018.7 1018.5 0.0
28/11:30am 21.2 15.2 8.8 45 6.6 SE 30 39 16 21 1019.1 1018.9 0.0
28/11:00am 20.0 14.8 8.7 48 5.9 ESE 26 35 14 19 1019.2 1019.0 0.0
28/10:30am 19.2 13.1 9.7 54 5.0 SE 32 43 17 23 1019.3 1019.1 0.0
28/10:00am 18.9 13.7 10.2 57 4.7 SE 28 39 15 21 1019.1 1018.9 0.0
28/09:30am 18.7 13.4 9.8 56 4.7 SE 28 35 15 19 1019.0 1018.8 0.0
28/09:00am 18.2 12.8 9.5 57 4.6 SE 28 35 15 19 1018.7 1018.5 0.0
28/08:30am 17.8 13.3 9.9 60 4.2 SE 24 32 13 17 1018.5 1018.3 0.0
28/08:00am 17.2 12.9 9.4 60 4.1 SE 22 30 12 16 1018.2 1018.0 0.0
28/07:30am 16.8 12.3 8.5 58 4.2 SE 22 28 12 15 1017.8 1017.6 0.0
28/07:00am 16.7 12.7 8.9 60 4.0 SE 20 28 11 15 1017.6 1017.4 0.0
28/06:30am 16.5 13.0 10.1 66 3.4 SE 19 22 10 12 1017.3 1017.1 0.0
28/06:00am 16.4 12.7 9.6 64 3.5 SE 19 26 10 14 1017.1 1016.9 0.0
28/05:30am 16.5 12.2 9.2 62 3.8 SE 22 28 12 15 1017.0 1016.8 0.0
28/05:00am 16.5 12.5 9.2 62 3.8 SE 20 26 11 14 1017.1 1016.9 0.0
28/04:30am 16.2 13.4 8.4 60 4.0 SE 13 17 7 9 1017.1 1016.9 0.0
28/04:00am 16.2 11.7 8.4 60 4.0 SE 22 32 12 17 1017.1 1016.9 0.0
28/03:30am 16.5 10.2 9.0 61 3.9 SE 32 43 17 23 1017.1 1016.9 0.0
28/03:00am 16.4 10.0 8.4 59 4.1 SE 32 41 17 22 1017.3 1017.1 0.0
28/02:30am 16.5 11.3 9.0 61 3.9 SE 26 39 14 21 1017.5 1017.3 0.0
28/02:00am 16.5 10.7 9.4 63 3.7 SE 30 39 16 21 1017.7 1017.5 0.0
28/01:30am 16.7 11.0 9.9 64 3.6 SE 30 39 16 21 1017.9 1017.7 0.0
28/01:00am 16.7 10.4 8.9 60 4.0 SE 32 43 17 23 1018.1 1017.9 0.0
28/12:30am 16.9 11.4 9.3 61 4.0 SE 28 35 15 19 1018.5 1018.3 0.0
28/12:00am 16.8 12.4 9.0 60 4.0 SE 22 30 12 16 1018.9 1018.7 0.0
 
Date/Time
CDT
Temp
°C
App
Temp
°C
Dew
Point
Rel
Hum
%
Delta-T
°C
Wind Press
QNH
hPa
Press
MSL
hPa
Rain
since 9 am
mm
Dir
 
Spd
km/h
Gust
km/h
Spd
kts
Gust
kts
27/11:30pm 17.0 12.1 9.9 63 3.7 SE 26 37 14 20 1019.1 1018.9 0.0
27/11:00pm 16.9 13.3 10.5 66 3.4 SSE 20 30 11 16 1018.9 1018.7 0.0
27/10:30pm 15.8 11.4 10.3 70 2.9 SSE 24 32 13 17 1018.8 1018.6 0.0
27/10:00pm 16.0 12.0 10.3 69 3.0 SSE 22 32 12 17 1019.0 1018.8 0.0
27/09:30pm 16.2 12.2 10.5 69 3.0 SSE 22 32 12 17 1019.0 1018.8 0.0
27/09:00pm 16.5 12.1 10.4 67 3.2 SSE 24 32 13 17 1019.0 1018.8 0.0
27/08:30pm 17.0 12.5 9.9 63 3.7 SSE 24 41 13 22 1018.8 1018.6 0.0
27/08:00pm 18.0 11.8 9.4 57 4.5 SSE 32 44 17 24 1018.3 1018.1 0.0
27/07:30pm 19.0 12.6 8.6 51 5.4 SSE 32 39 17 21 1017.8 1017.6 0.0
27/07:00pm 19.7 13.9 8.1 47 6.0 SSE 28 39 15 21 1017.5 1017.3 0.0
27/06:30pm 19.8 14.1 8.2 47 6.0 SSE 28 41 15 22 1017.3 1017.1 0.0
27/06:00pm 21.0 14.9 8.3 44 6.6 SE 30 43 16 23 1017.2 1017.0 0.0
27/05:30pm 21.3 15.3 7.2 40 7.2 SSE 28 37 15 20 1017.0 1016.8 0.0
27/05:00pm 21.6 15.1 6.3 37 7.8 SSE 30 39 16 21 1017.0 1016.8 0.0
27/04:30pm 21.6 15.4 6.3 37 7.7 SE 28 41 15 22 1017.1 1016.9 0.0
27/04:00pm 21.1 14.1 6.2 38 7.5 SSE 32 39 17 21 1017.2 1017.0 0.0
27/03:30pm 20.9 15.1 6.4 39 7.3 SSE 26 39 14 21 1017.4 1017.2 0.0
27/03:00pm 22.4 17.1 7.0 37 7.9 SE 24 39 13 21 1017.4 1017.2 0.0
27/02:30pm 22.0 16.8 7.4 39 7.6 SSE 24 35 13 19 1017.7 1017.5 0.0
27/02:00pm 21.8 16.5 6.9 38 7.6 SSE 24 39 13 21 1017.9 1017.7 0.0
27/01:30pm 22.0 17.5 7.0 38 7.7 SSE 20 33 11 18 1018.0 1017.8 0.0
27/01:00pm 21.5 16.4 7.7 41 7.2 SE 24 37 13 20 1018.4 1018.2 0.0
27/12:30pm 20.6 14.8 7.9 44 6.6 SSE 28 39 15 21 1018.5 1018.3 0.0
27/12:00pm 20.4 15.5 7.1 42 6.8 SE 22 37 12 20 1018.7 1018.5 0.0
27/11:30am 19.8 15.0 7.5 45 6.3 SSE 22 35 12 19 1018.7 1018.5 0.0
27/11:00am 20.6 15.9 7.9 44 6.6 SE 22 35 12 19 1019.0 1018.8 0.0
27/10:30am 18.5 13.6 7.0 47 5.8 SE 22 32 12 17 1019.1 1018.9 0.0
27/10:00am 18.4 13.6 7.2 48 5.7 ESE 22 32 12 17 1019.2 1019.0 0.0
27/09:30am 17.7 12.9 7.4 51 5.2 SE 22 32 12 17 1019.3 1019.1 0.0
27/09:00am 17.2 12.5 7.8 54 4.8 SE 22 32 12 17 1019.3 1019.1 0.0
27/08:30am 15.3 12.8 8.1 62 3.6 SW 11 17 6 9 1019.3 1019.1 0.0
27/08:00am 12.7 10.1 7.8 72 2.4 SSW 11 11 6 6 1019.2 1019.0 0.0
27/07:30am 11.0 8.4 7.7 80 1.6 SSW 11 13 6 7 1018.9 1018.7 0.0
27/07:00am 9.6 6.5 7.2 85 1.1 S 13 15 7 8 1018.6 1018.4 0.0
27/06:30am 8.8 6.3 6.6 86 1.0 S 9 11 5 6 1018.4 1018.2 0.0
27/06:00am 8.9 5.7 6.9 87 0.9 S 13 13 7 7 1017.9 1017.7 0.0
27/05:30am 8.6 5.7 6.4 86 1.0 S 11 11 6 6 1017.7 1017.5 0.0
27/05:00am 9.6 6.8 7.0 84 1.2 S 11 13 6 7 1017.7 1017.5 0.0

Other Formats:

Comma delimited format used in spreadsheet applications
http://www.bom.gov.au/fwo/IDS60801/IDS60801.95663.axf

JavaScript Object Notation format (JSON) in row-major order
http://www.bom.gov.au/fwo/IDS60801/IDS60801.95663.json